Time;durP1;ratioP1;P1;durP2;ratioP2;P2;SDS_P1;SDS_P2;PMS_P1;PMS_P2;Temp;Humidity;BMP_temperature;BMP_pressure;BME280_temperature;BME280_humidity;BME280_pressure;Samples;Min_cycle;Max_cycle;Signal;HPM_P1;HPM_P2
2021/06/17 00:00:10;;;;;;;;;;;25.80;38.40;;;;;;1574051;74;730;-68
2021/06/17 00:02:12;;;;;;;;;;;25.70;38.40;;;;;;1577371;74;1924;-66
2021/06/17 00:04:14;;;;;;;;;;;25.80;38.40;;;;;;1572672;74;1172;-66
2021/06/17 00:06:15;;;;;;;;;;;25.70;38.50;;;;;;1574868;74;666;-65
2021/06/17 00:08:18;;;;;;;;;;;25.80;38.50;;;;;;1575370;74;774;-66
2021/06/17 00:10:21;;;;;;;;;;;25.80;38.70;;;;;;1572481;74;792;-67
2021/06/17 00:12:23;;;;;;;;;;;25.70;38.50;;;;;;1571337;74;1839;-67
2021/06/17 00:14:25;;;;;;;;;;;25.70;38.70;;;;;;1570817;74;1129;-64
2021/06/17 00:16:27;;;;;;;;;;;25.80;38.70;;;;;;1572074;74;809;-65
2021/06/17 00:18:29;;;;;;;;;;;25.80;38.40;;;;;;1575373;74;736;-65
2021/06/17 00:20:31;;;;;;;;;;;25.70;38.80;;;;;;1574776;75;756;-65
2021/06/17 00:22:33;;;;;;;;;;;25.70;38.80;;;;;;1574955;74;1931;-65
2021/06/17 00:24:35;;;;;;;;;;;25.80;38.90;;;;;;1573600;74;1128;-67
2021/06/17 00:26:36;;;;;;;;;;;25.80;38.90;;;;;;1575178;74;735;-66
2021/06/17 00:28:38;;;;;;;;;;;25.70;38.80;;;;;;1575241;75;763;-67
2021/06/17 00:30:40;;;;;;;;;;;25.70;38.70;;;;;;1575211;74;778;-66
2021/06/17 00:32:42;;;;;;;;;;;25.70;38.60;;;;;;1574740;74;764;-66
2021/06/17 00:34:44;;;;;;;;;;;25.80;38.50;;;;;;1575157;74;1143;-65
2021/06/17 00:36:46;;;;;;;;;;;25.70;38.40;;;;;;1570987;74;705;-64
2021/06/17 00:38:48;;;;;;;;;;;25.70;38.40;;;;;;1574769;74;732;-66
2021/06/17 00:40:52;;;;;;;;;;;25.80;38.50;;;;;;1574022;74;738;-66
2021/06/17 00:42:53;;;;;;;;;;;25.80;38.40;;;;;;1570229;74;1924;-65
2021/06/17 00:44:55;;;;;;;;;;;25.70;38.40;;;;;;1572989;74;1125;-65
2021/06/17 00:46:57;;;;;;;;;;;25.80;38.40;;;;;;1572080;74;726;-66
2021/06/17 00:48:59;;;;;;;;;;;25.70;38.40;;;;;;1572725;74;773;-66
2021/06/17 00:51:01;;;;;;;;;;;25.80;38.70;;;;;;1574370;74;793;-65
2021/06/17 00:53:03;;;;;;;;;;;25.70;38.60;;;;;;1575001;74;804;-65
2021/06/17 00:55:05;;;;;;;;;;;25.70;38.40;;;;;;1572945;74;1136;-66
2021/06/17 00:57:07;;;;;;;;;;;25.80;38.40;;;;;;1571603;74;820;-66
2021/06/17 00:59:09;;;;;;;;;;;25.70;38.40;;;;;;1575278;75;689;-66
2021/06/17 01:01:11;;;;;;;;;;;25.70;38.40;;;;;;1574308;74;776;-65
2021/06/17 01:03:13;;;;;;;;;;;25.70;38.20;;;;;;1577047;74;1931;-65
2021/06/17 01:05:17;;;;;;;;;;;25.70;38.90;;;;;;1575088;74;1172;-67
2021/06/17 01:07:20;;;;;;;;;;;25.80;38.30;;;;;;1575236;75;804;-63
2021/06/17 01:09:32;;;;;;;;;;;25.70;38.10;;;;;;1574097;75;1554;-64
2021/06/17 01:11:51;;;;;;;;;;;25.70;38.40;;;;;;1575214;75;799;-64
2021/06/17 01:14:04;;;;;;;;;;;25.70;38.30;;;;;;1569959;74;1125;-66
2021/06/17 01:16:13;;;;;;;;;;;25.70;38.20;;;;;;1530542;75;1330;-64
2021/06/17 01:18:15;;;;;;;;;;;25.70;38.40;;;;;;1574850;75;713;-63
2021/06/17 01:20:25;;;;;;;;;;;25.60;38.30;;;;;;1570743;74;770;-64
2021/06/17 01:22:45;;;;;;;;;;;25.70;38.10;;;;;;1561501;74;1934;-64
2021/06/17 01:24:51;;;;;;;;;;;25.60;38.10;;;;;;1562981;75;1144;-64
2021/06/17 01:27:10;;;;;;;;;;;25.60;38.10;;;;;;1569983;74;2006;-64
2021/06/17 01:29:13;;;;;;;;;;;25.60;38.20;;;;;;1574547;74;720;-64
2021/06/17 01:31:15;;;;;;;;;;;25.70;38.20;;;;;;1566358;74;754;-67
2021/06/17 01:33:17;;;;;;;;;;;25.60;38.30;;;;;;1562271;75;662;-65
2021/06/17 01:35:20;;;;;;;;;;;25.70;38.10;;;;;;1575076;74;1133;-67
2021/06/17 01:37:22;;;;;;;;;;;25.70;38.10;;;;;;1575274;74;690;-67
2021/06/17 01:39:24;;;;;;;;;;;25.60;38.00;;;;;;1572629;74;767;-67
2021/06/17 01:41:28;;;;;;;;;;;25.60;38.10;;;;;;1575293;75;825;-66
2021/06/17 01:43:30;;;;;;;;;;;25.60;38.10;;;;;;1566882;75;1929;-67
2021/06/17 01:45:32;;;;;;;;;;;25.70;38.00;;;;;;1567026;74;1143;-66
2021/06/17 01:47:35;;;;;;;;;;;25.60;38.00;;;;;;1563039;74;718;-66
2021/06/17 01:49:37;;;;;;;;;;;25.70;37.80;;;;;;1568234;74;880;-67
2021/06/17 01:51:39;;;;;;;;;;;25.60;38.00;;;;;;1572928;74;747;-66
2021/06/17 01:53:41;;;;;;;;;;;25.60;38.10;;;;;;1571905;74;814;-66
2021/06/17 01:55:43;;;;;;;;;;;25.70;37.80;;;;;;1573632;75;1185;-67
2021/06/17 01:57:45;;;;;;;;;;;25.60;37.80;;;;;;1575420;74;745;-67
2021/06/17 01:59:47;;;;;;;;;;;25.60;37.80;;;;;;1567575;74;724;-66
2021/06/17 02:01:49;;;;;;;;;;;25.70;37.90;;;;;;1571653;74;790;-66
2021/06/17 02:03:51;;;;;;;;;;;25.50;37.80;;;;;;1575254;74;1931;-66
2021/06/17 02:05:53;;;;;;;;;;;25.60;37.80;;;;;;1573584;74;752;-67
2021/06/17 02:07:55;;;;;;;;;;;25.60;37.80;;;;;;1575508;74;755;-67
2021/06/17 02:09:57;;;;;;;;;;;25.60;37.80;;;;;;1574445;74;772;-67
2021/06/17 02:11:59;;;;;;;;;;;25.60;37.80;;;;;;1570521;74;697;-68
2021/06/17 02:14:01;;;;;;;;;;;25.60;37.80;;;;;;1574957;75;1157;-65
2021/06/17 02:16:03;;;;;;;;;;;25.60;37.80;;;;;;1566403;74;732;-67
2021/06/17 02:18:05;;;;;;;;;;;25.60;37.80;;;;;;1572831;75;777;-65
2021/06/17 02:20:07;;;;;;;;;;;25.70;37.80;;;;;;1575375;74;787;-67
2021/06/17 02:22:10;;;;;;;;;;;25.60;37.70;;;;;;1575369;75;752;-66
2021/06/17 02:24:11;;;;;;;;;;;25.50;37.80;;;;;;1574872;74;1903;-69
2021/06/17 02:26:13;;;;;;;;;;;25.70;37.80;;;;;;1574932;74;708;-67
2021/06/17 02:28:16;;;;;;;;;;;25.60;37.80;;;;;;1566225;74;793;-66
2021/06/17 02:30:18;;;;;;;;;;;25.60;37.80;;;;;;1571192;75;784;-66
2021/06/17 02:32:20;;;;;;;;;;;25.60;37.80;;;;;;1574234;74;728;-68
2021/06/17 02:34:23;;;;;;;;;;;25.60;37.80;;;;;;1571997;74;1274;-68
2021/06/17 02:36:28;;;;;;;;;;;25.60;37.80;;;;;;1573416;74;811;-64
2021/06/17 02:38:31;;;;;;;;;;;25.60;37.80;;;;;;1567915;75;765;-64
2021/06/17 02:40:34;;;;;;;;;;;25.60;37.70;;;;;;1571954;74;752;-67
2021/06/17 02:42:36;;;;;;;;;;;25.50;37.80;;;;;;1567638;75;1924;-66
2021/06/17 02:44:37;;;;;;;;;;;25.50;37.80;;;;;;1565916;74;1179;-66
2021/06/17 02:46:39;;;;;;;;;;;25.60;37.80;;;;;;1569955;74;786;-65
2021/06/17 02:48:41;;;;;;;;;;;25.60;37.70;;;;;;1539828;75;679;-66
2021/06/17 02:50:43;;;;;;;;;;;25.60;37.70;;;;;;1548784;75;779;-68
2021/06/17 02:52:45;;;;;;;;;;;25.50;37.80;;;;;;1560567;75;799;-65
2021/06/17 02:54:47;;;;;;;;;;;25.50;37.80;;;;;;1557796;75;1141;-66
2021/06/17 02:57:06;;;;;;;;;;;25.60;38.10;;;;;;1549286;76;809;-68
2021/06/17 02:59:12;;;;;;;;;;;25.60;38.10;;;;;;1553090;76;683;-65
2021/06/17 03:01:22;;;;;;;;;;;25.50;37.80;;;;;;1556854;75;694;-64
2021/06/17 03:03:25;;;;;;;;;;;25.50;37.80;;;;;;1555005;75;1917;-65
2021/06/17 03:05:38;;;;;;;;;;;25.50;37.90;;;;;;1561220;75;1800;-64
2021/06/17 03:07:41;;;;;;;;;;;25.60;37.90;;;;;;1545698;76;994;-66
2021/06/17 03:09:45;;;;;;;;;;;25.50;38.00;;;;;;1557413;75;733;-65
2021/06/17 03:11:48;;;;;;;;;;;25.50;38.20;;;;;;1545596;75;1647;-64
2021/06/17 03:13:51;;;;;;;;;;;25.50;37.90;;;;;;1556841;75;1125;-65
2021/06/17 03:15:53;;;;;;;;;;;25.50;38.00;;;;;;1548665;75;731;-66
2021/06/17 03:17:54;;;;;;;;;;;25.40;38.00;;;;;;1549313;75;708;-64
2021/06/17 03:19:57;;;;;;;;;;;25.50;38.10;;;;;;1550023;75;783;-65
2021/06/17 03:22:00;;;;;;;;;;;25.50;37.80;;;;;;1555606;76;715;-64
2021/06/17 03:24:02;;;;;;;;;;;25.50;37.80;;;;;;1549727;76;1933;-64
2021/06/17 03:26:05;;;;;;;;;;;25.50;37.80;;;;;;1553663;75;607;-65
2021/06/17 03:28:07;;;;;;;;;;;25.50;37.80;;;;;;1551917;76;711;-64
2021/06/17 03:30:09;;;;;;;;;;;25.40;38.00;;;;;;1544088;75;718;-65
2021/06/17 03:32:11;;;;;;;;;;;25.50;37.90;;;;;;1540693;75;782;-65
2021/06/17 03:34:13;;;;;;;;;;;25.50;37.90;;;;;;1556803;75;1145;-64
2021/06/17 03:36:15;;;;;;;;;;;25.50;37.70;;;;;;1546905;75;792;-64
2021/06/17 03:38:17;;;;;;;;;;;25.40;37.70;;;;;;1549905;75;927;-64
2021/06/17 03:40:19;;;;;;;;;;;25.50;37.80;;;;;;1552787;75;789;-66
2021/06/17 03:42:21;;;;;;;;;;;25.50;37.80;;;;;;1544076;76;737;-67
2021/06/17 03:44:23;;;;;;;;;;;25.50;37.90;;;;;;1557028;76;1932;-67
2021/06/17 03:46:25;;;;;;;;;;;25.50;37.90;;;;;;1557084;75;781;-67
2021/06/17 03:48:27;;;;;;;;;;;25.50;38.00;;;;;;1557073;75;775;-67
2021/06/17 03:50:29;;;;;;;;;;;25.50;38.00;;;;;;1560763;75;779;-66
2021/06/17 03:52:30;;;;;;;;;;;25.50;37.80;;;;;;1552607;75;796;-66
2021/06/17 03:54:32;;;;;;;;;;;25.50;38.00;;;;;;1549562;75;1153;-67
2021/06/17 03:56:34;;;;;;;;;;;25.50;37.90;;;;;;1557123;75;1084;-66
2021/06/17 03:58:36;;;;;;;;;;;25.50;38.10;;;;;;1551468;75;843;-66
2021/06/17 04:00:38;;;;;;;;;;;25.40;38.10;;;;;;1549172;76;670;-67
2021/06/17 04:02:40;;;;;;;;;;;25.40;38.00;;;;;;1547098;75;736;-67
2021/06/17 04:04:42;;;;;;;;;;;25.40;38.10;;;;;;1552687;75;1939;-64
2021/06/17 04:06:45;;;;;;;;;;;25.50;38.20;;;;;;1546657;75;736;-67
2021/06/17 04:08:51;;;;;;;;;;;25.40;37.90;;;;;;1551764;75;853;-65
2021/06/17 04:10:54;;;;;;;;;;;25.40;37.90;;;;;;1554853;75;725;-64
2021/06/17 04:12:57;;;;;;;;;;;25.40;38.70;;;;;;1555792;75;735;-67
2021/06/17 04:14:59;;;;;;;;;;;25.40;38.70;;;;;;1558658;75;1161;-66
2021/06/17 04:17:01;;;;;;;;;;;25.50;38.60;;;;;;1543512;75;760;-66
2021/06/17 04:19:03;;;;;;;;;;;25.40;38.40;;;;;;1542129;76;958;-67
2021/06/17 04:21:05;;;;;;;;;;;25.40;38.30;;;;;;1549764;76;821;-66
2021/06/17 04:23:07;;;;;;;;;;;25.50;38.20;;;;;;1546833;75;808;-64
2021/06/17 04:25:09;;;;;;;;;;;25.40;38.30;;;;;;1556479;75;1940;-66
2021/06/17 04:27:11;;;;;;;;;;;25.50;38.30;;;;;;1555016;75;779;-66
2021/06/17 04:29:15;;;;;;;;;;;25.50;38.30;;;;;;1533740;77;743;-67
2021/06/17 04:31:17;;;;;;;;;;;25.50;38.70;;;;;;1555686;75;1490;-67
2021/06/17 04:33:19;;;;;;;;;;;25.40;38.80;;;;;;1556580;75;810;-66
2021/06/17 04:35:21;;;;;;;;;;;25.50;38.50;;;;;;1557097;76;1149;-67
2021/06/17 04:37:25;;;;;;;;;;;25.50;38.70;;;;;;1556891;75;764;-65
2021/06/17 04:39:27;;;;;;;;;;;25.40;39.10;;;;;;1557024;75;988;-65
2021/06/17 04:41:29;;;;;;;;;;;25.50;38.80;;;;;;1556946;75;815;-65
2021/06/17 04:43:32;;;;;;;;;;;25.50;38.70;;;;;;1556136;76;1928;-65
2021/06/17 04:45:34;;;;;;;;;;;25.50;38.70;;;;;;1552260;75;1174;-66
2021/06/17 04:47:37;;;;;;;;;;;25.50;38.70;;;;;;1556343;76;760;-65
2021/06/17 04:49:39;;;;;;;;;;;25.50;38.80;;;;;;1559467;75;834;-65
2021/06/17 04:51:41;;;;;;;;;;;25.40;38.70;;;;;;1558950;75;797;-64
2021/06/17 04:53:43;;;;;;;;;;;25.50;38.90;;;;;;1558162;75;798;-66
2021/06/17 04:55:49;;;;;;;;;;;25.50;38.90;;;;;;1567383;70;223674;-58
2021/06/17 04:57:51;;;;;;;;;;;25.40;39.00;;;;;;1575505;73;830;-55
2021/06/17 04:59:53;;;;;;;;;;;25.40;38.90;;;;;;1569002;73;913;-55
2021/06/17 05:01:56;;;;;;;;;;;25.40;39.00;;;;;;1552187;74;1129;-59
2021/06/17 05:03:58;;;;;;;;;;;25.50;39.00;;;;;;1551144;75;1919;-58
2021/06/17 05:06:01;;;;;;;;;;;25.40;39.10;;;;;;1548238;74;786;-59
2021/06/17 05:12:36;;;;;;;;;;;25.50;39.20;;;;;;1550565;74;1730;-57
2021/06/17 05:14:38;;;;;;;;;;;25.40;39.20;;;;;;1553632;74;761;-58
2021/06/17 05:16:40;;;;;;;;;;;25.40;39.30;;;;;;1552991;75;835;-59
2021/06/17 05:18:41;;;;;;;;;;;25.40;39.30;;;;;;1547877;74;715;-59
2021/06/17 05:20:43;;;;;;;;;;;25.50;39.30;;;;;;1544508;75;1069;-58
2021/06/17 05:22:45;;;;;;;;;;;25.50;39.40;;;;;;1549214;74;787;-59
2021/06/17 05:24:47;;;;;;;;;;;25.50;39.40;;;;;;1548819;74;1944;-59
2021/06/17 05:26:49;;;;;;;;;;;25.50;39.40;;;;;;1559632;75;758;-58
2021/06/17 05:28:51;;;;;;;;;;;25.40;39.50;;;;;;1550822;74;772;-58
2021/06/17 05:30:54;;;;;;;;;;;25.50;39.50;;;;;;1553684;75;1134;-58
2021/06/17 05:32:56;;;;;;;;;;;25.50;39.60;;;;;;1559176;74;686;-58
2021/06/17 05:34:58;;;;;;;;;;;25.40;39.60;;;;;;1551470;75;726;-58
2021/06/17 05:36:59;;;;;;;;;;;25.50;39.60;;;;;;1550219;74;749;-59
2021/06/17 05:39:01;;;;;;;;;;;25.50;40.00;;;;;;1546730;74;800;-61
2021/06/17 05:41:03;;;;;;;;;;;25.50;40.60;;;;;;1555689;74;1120;-60
2021/06/17 05:43:05;;;;;;;;;;;25.40;40.70;;;;;;1567693;74;794;-59
2021/06/17 05:45:07;;;;;;;;;;;25.40;40.70;;;;;;1568653;75;1958;-60
2021/06/17 05:47:10;;;;;;;;;;;25.30;40.70;;;;;;1561379;75;781;-60
2021/06/17 05:49:14;;;;;;;;;;;25.40;40.80;;;;;;1550223;74;839;-59
2021/06/17 05:51:15;;;;;;;;;;;25.40;40.50;;;;;;1557674;74;1043;-59
2021/06/17 05:53:17;;;;;;;;;;;25.40;40.70;;;;;;1567885;75;785;-59
2021/06/17 05:55:19;;;;;;;;;;;25.50;40.60;;;;;;1564506;74;1121;-58
2021/06/17 05:57:21;;;;;;;;;;;25.50;40.50;;;;;;1551020;74;810;-59
2021/06/17 05:59:23;;;;;;;;;;;25.50;40.50;;;;;;1552669;74;820;-60
2021/06/17 06:01:25;;;;;;;;;;;25.50;40.60;;;;;;1563773;74;1198;-59
2021/06/17 06:03:27;;;;;;;;;;;25.50;40.60;;;;;;1561853;74;818;-58
2021/06/17 06:05:29;;;;;;;;;;;25.50;40.60;;;;;;1565056;75;1951;-59
2021/06/17 06:07:31;;;;;;;;;;;25.50;40.60;;;;;;1552314;74;794;-58
2021/06/17 06:09:33;;;;;;;;;;;25.50;40.50;;;;;;1569150;74;750;-59
2021/06/17 06:11:35;;;;;;;;;;;25.50;40.70;;;;;;1571148;75;1129;-59
2021/06/17 06:13:36;;;;;;;;;;;25.40;40.70;;;;;;1559863;74;762;-59
2021/06/17 06:15:38;;;;;;;;;;;25.60;41.40;;;;;;1553990;74;822;-59
2021/06/17 06:17:40;;;;;;;;;;;25.70;41.40;;;;;;1563456;74;695;-58
2021/06/17 06:19:42;;;;;;;;;;;25.80;41.50;;;;;;1569927;74;673;-58
2021/06/17 06:21:44;;;;;;;;;;;25.90;41.70;;;;;;1571609;74;1129;-58
2021/06/17 06:23:46;;;;;;;;;;;25.90;41.40;;;;;;1556758;74;770;-58
2021/06/17 06:25:49;;;;;;;;;;;26.10;41.80;;;;;;1562988;74;1954;-57
2021/06/17 06:27:51;;;;;;;;;;;26.20;41.50;;;;;;1549808;75;765;-59
2021/06/17 06:29:53;;;;;;;;;;;26.20;41.30;;;;;;1573866;74;611;-58
2021/06/17 06:31:55;;;;;;;;;;;26.20;41.30;;;;;;1554059;74;1082;-58
2021/06/17 06:33:57;;;;;;;;;;;26.20;41.20;;;;;;1558087;75;724;-57
2021/06/17 06:35:58;;;;;;;;;;;26.20;41.40;;;;;;1560020;75;780;-56
2021/06/17 06:38:01;;;;;;;;;;;26.30;41.30;;;;;;1565127;74;761;-58
2021/06/17 06:40:03;;;;;;;;;;;26.40;41.50;;;;;;1564459;74;764;-57
2021/06/17 06:42:06;;;;;;;;;;;26.40;41.30;;;;;;1560686;74;1123;-56
2021/06/17 06:44:08;;;;;;;;;;;26.40;41.10;;;;;;1543543;75;1936;-57
2021/06/17 06:46:10;;;;;;;;;;;26.50;41.00;;;;;;1555917;75;787;-56
2021/06/17 06:48:12;;;;;;;;;;;26.50;40.90;;;;;;1549269;74;748;-55
2021/06/17 06:50:14;;;;;;;;;;;26.50;40.80;;;;;;1548261;75;826;-58
2021/06/17 06:52:15;;;;;;;;;;;26.50;42.20;;;;;;1551525;74;1138;-58
2021/06/17 06:54:22;;;;;;;;;;;26.40;42.30;;;;;;1556348;74;781;-56
2021/06/17 06:56:21;;;;;;;;;;;26.50;41.10;;;;;;1555235;74;1468;-58
2021/06/17 06:58:23;;;;;;;;;;;26.60;40.90;;;;;;1557565;74;785;-57
2021/06/17 07:00:25;;;;;;;;;;;26.60;40.70;;;;;;1551096;74;924;-57
2021/06/17 07:02:26;;;;;;;;;;;26.60;40.70;;;;;;1546920;75;1082;-56
2021/06/17 07:04:28;;;;;;;;;;;26.70;40.60;;;;;;1555375;75;1944;-58
2021/06/17 07:06:30;;;;;;;;;;;26.70;40.20;;;;;;1546757;74;780;-58
2021/06/17 07:08:33;;;;;;;;;;;26.60;40.30;;;;;;1552146;74;778;-58
2021/06/17 07:10:35;;;;;;;;;;;26.70;40.50;;;;;;1550369;75;1136;-57
2021/06/17 07:12:37;;;;;;;;;;;26.70;40.00;;;;;;1545181;74;778;-58
2021/06/17 07:14:38;;;;;;;;;;;26.70;39.90;;;;;;1552509;74;760;-58
2021/06/17 07:16:40;;;;;;;;;;;26.80;39.70;;;;;;1557763;74;785;-57
2021/06/17 07:18:42;;;;;;;;;;;26.80;39.60;;;;;;1552131;74;737;-58
2021/06/17 07:20:44;;;;;;;;;;;26.80;39.40;;;;;;1558202;75;1126;-57
2021/06/17 07:22:46;;;;;;;;;;;26.70;39.40;;;;;;1550674;75;708;-56
2021/06/17 07:24:48;;;;;;;;;;;26.80;39.40;;;;;;1546432;75;1914;-56
2021/06/17 07:26:52;;;;;;;;;;;26.80;39.20;;;;;;1552359;74;711;-56
2021/06/17 07:28:55;;;;;;;;;;;26.80;39.20;;;;;;1549009;75;829;-58
2021/06/17 07:30:57;;;;;;;;;;;26.80;39.30;;;;;;1540845;75;1122;-58
2021/06/17 07:32:59;;;;;;;;;;;26.80;39.20;;;;;;1542840;74;802;-58
2021/06/17 07:35:01;;;;;;;;;;;26.80;39.10;;;;;;1549079;74;783;-58
2021/06/17 07:37:03;;;;;;;;;;;26.80;39.00;;;;;;1546765;75;767;-56
2021/06/17 07:39:05;;;;;;;;;;;26.80;39.10;;;;;;1537928;76;840;-57
2021/06/17 07:41:07;;;;;;;;;;;26.80;39.10;;;;;;1548196;74;1137;-57
2021/06/17 07:43:09;;;;;;;;;;;26.80;38.90;;;;;;1550859;75;816;-56
2021/06/17 07:45:11;;;;;;;;;;;26.90;38.90;;;;;;1545506;74;1912;-56
2021/06/17 07:47:13;;;;;;;;;;;26.90;38.80;;;;;;1551594;74;690;-56
2021/06/17 07:49:15;;;;;;;;;;;26.80;38.80;;;;;;1545173;74;760;-54
2021/06/17 07:51:17;;;;;;;;;;;26.80;38.90;;;;;;1543115;75;1144;-55
2021/06/17 07:53:19;;;;;;;;;;;26.90;38.60;;;;;;1545592;74;677;-57
2021/06/17 07:55:21;;;;;;;;;;;26.90;38.90;;;;;;1562288;75;725;-60
2021/06/17 07:57:23;;;;;;;;;;;26.90;38.70;;;;;;1541221;74;784;-59
2021/06/17 07:59:26;;;;;;;;;;;27.00;39.40;;;;;;1550176;74;770;-58
2021/06/17 08:01:28;;;;;;;;;;;26.90;38.80;;;;;;1560272;75;1136;-58
2021/06/17 08:03:30;;;;;;;;;;;26.90;38.90;;;;;;1547950;74;828;-58
2021/06/17 08:05:31;;;;;;;;;;;27.00;39.40;;;;;;1551063;75;1935;-57
2021/06/17 08:07:33;;;;;;;;;;;27.00;39.10;;;;;;1555808;75;756;-58
2021/06/17 08:09:35;;;;;;;;;;;26.90;38.60;;;;;;1546132;75;872;-55
2021/06/17 08:11:37;;;;;;;;;;;26.70;38.60;;;;;;1550275;73;1099;-58
2021/06/17 08:13:39;;;;;;;;;;;26.90;38.50;;;;;;1561696;74;801;-56
2021/06/17 08:15:41;;;;;;;;;;;26.90;38.60;;;;;;1561698;75;755;-56
2021/06/17 08:17:43;;;;;;;;;;;27.00;39.20;;;;;;1557351;74;799;-58
2021/06/17 08:19:45;;;;;;;;;;;26.90;38.60;;;;;;1557425;74;876;-58
2021/06/17 08:21:47;;;;;;;;;;;26.90;38.50;;;;;;1553028;74;1045;-56
2021/06/17 08:23:48;;;;;;;;;;;26.90;38.60;;;;;;1556225;75;707;-57
2021/06/17 08:25:50;;;;;;;;;;;27.00;39.10;;;;;;1554934;74;1932;-58
2021/06/17 08:27:52;;;;;;;;;;;27.00;39.10;;;;;;1552416;75;812;-58
2021/06/17 08:29:54;;;;;;;;;;;26.90;38.50;;;;;;1548149;75;650;-57
2021/06/17 08:31:56;;;;;;;;;;;26.90;38.50;;;;;;1551590;74;1113;-54
2021/06/17 08:33:58;;;;;;;;;;;26.90;38.50;;;;;;1552175;75;813;-58
2021/06/17 08:36:02;;;;;;;;;;;26.90;38.50;;;;;;1550234;74;805;-58
2021/06/17 08:38:03;;;;;;;;;;;26.90;38.80;;;;;;1552084;74;1546;-58
2021/06/17 08:40:06;;;;;;;;;;;26.90;38.80;;;;;;1550779;74;713;-58
2021/06/17 08:42:08;;;;;;;;;;;26.90;38.80;;;;;;1556576;75;1156;-58
2021/06/17 08:44:09;;;;;;;;;;;26.90;39.20;;;;;;1550663;74;695;-58
2021/06/17 08:46:11;;;;;;;;;;;26.90;39.10;;;;;;1549429;74;1975;-58
2021/06/17 08:48:15;;;;;;;;;;;26.90;39.20;;;;;;1550168;74;779;-57
2021/06/17 08:50:17;;;;;;;;;;;26.90;39.20;;;;;;1563873;74;786;-57
2021/06/17 08:52:19;;;;;;;;;;;27.00;39.80;;;;;;1556000;74;1081;-58
2021/06/17 08:54:21;;;;;;;;;;;26.90;39.20;;;;;;1556662;74;830;-58
2021/06/17 08:56:24;;;;;;;;;;;26.90;39.40;;;;;;1554645;75;778;-58
2021/06/17 08:58:26;;;;;;;;;;;26.90;40.20;;;;;;1554383;74;833;-57
2021/06/17 09:00:30;;;;;;;;;;;26.90;40.20;;;;;;1558227;74;728;-56
2021/06/17 09:02:32;;;;;;;;;;;26.90;40.00;;;;;;1552600;74;1548;-58
2021/06/17 09:04:34;;;;;;;;;;;26.90;39.60;;;;;;1559932;74;763;-58
2021/06/17 09:06:36;;;;;;;;;;;27.00;40.30;;;;;;1561642;74;1946;-58
2021/06/17 09:08:38;;;;;;;;;;;27.00;40.30;;;;;;1561539;74;698;-55
2021/06/17 09:10:41;;;;;;;;;;;27.00;40.00;;;;;;1558223;75;1108;-58
2021/06/17 09:12:43;;;;;;;;;;;27.00;40.20;;;;;;1560239;74;705;-58
2021/06/17 09:14:52;;;;;;;;;;;26.90;39.40;;;;;;1563786;74;718;-58
2021/06/17 09:16:58;;;;;;;;;;;26.90;39.70;;;;;;1559496;75;601;-59
2021/06/17 09:19:00;;;;;;;;;;;26.90;39.30;;;;;;1557260;74;1909;-58
2021/06/17 09:21:11;;;;;;;;;;;27.00;40.50;;;;;;1546420;74;1147;-58
2021/06/17 09:23:19;;;;;;;;;;;26.90;39.70;;;;;;1552624;74;676;-59
2021/06/17 09:25:21;;;;;;;;;;;26.90;39.90;;;;;;1558676;75;1944;-56
2021/06/17 09:27:24;;;;;;;;;;;26.90;39.80;;;;;;1556670;74;755;-58
2021/06/17 09:29:28;;;;;;;;;;;26.90;39.70;;;;;;1562637;74;815;-58
2021/06/17 09:31:30;;;;;;;;;;;26.90;39.60;;;;;;1564022;74;1145;-55
2021/06/17 09:33:34;;;;;;;;;;;26.90;39.90;;;;;;1562016;74;780;-58
2021/06/17 09:35:37;;;;;;;;;;;26.80;39.70;;;;;;1560095;75;1157;-57
2021/06/17 09:37:39;;;;;;;;;;;26.80;40.00;;;;;;1548880;75;808;-58
2021/06/17 09:39:41;;;;;;;;;;;26.80;40.30;;;;;;1559597;74;807;-56
2021/06/17 09:41:54;;;;;;;;;;;26.70;40.80;;;;;;1559132;74;1157;-57
2021/06/17 09:43:56;;;;;;;;;;;26.70;40.60;;;;;;1553533;75;714;-59
2021/06/17 09:45:59;;;;;;;;;;;26.70;40.90;;;;;;1549151;74;1932;-59
2021/06/17 09:48:01;;;;;;;;;;;26.70;40.90;;;;;;1554229;75;765;-57
2021/06/17 09:50:06;;;;;;;;;;;26.70;41.00;;;;;;1556739;74;790;-58
2021/06/17 09:52:06;;;;;;;;;;;26.70;40.70;;;;;;1542459;75;1679;-55
2021/06/17 09:54:10;;;;;;;;;;;26.70;41.00;;;;;;1558973;74;698;-58
2021/06/17 09:56:13;;;;;;;;;;;26.70;41.30;;;;;;1553499;75;1012;-58
2021/06/17 09:58:33;;;;;;;;;;;26.70;41.70;;;;;;1554455;74;802;-55
2021/06/17 10:00:35;;;;;;;;;;;26.60;41.40;;;;;;1547330;74;1051;-57
2021/06/17 10:02:38;;;;;;;;;;;26.60;41.60;;;;;;1558911;74;789;-57
2021/06/17 10:04:40;;;;;;;;;;;26.60;41.60;;;;;;1562501;74;859;-60
2021/06/17 10:06:43;;;;;;;;;;;26.60;41.40;;;;;;1555577;74;1932;-60
2021/06/17 10:08:45;;;;;;;;;;;26.70;41.10;;;;;;1551838;75;673;-59
2021/06/17 10:10:46;;;;;;;;;;;26.70;40.80;;;;;;1555671;75;1224;-59
2021/06/17 10:12:48;;;;;;;;;;;26.80;40.70;;;;;;1550981;74;722;-57
2021/06/17 10:14:50;;;;;;;;;;;26.70;40.90;;;;;;1556991;74;808;-55
2021/06/17 10:16:52;;;;;;;;;;;26.70;41.00;;;;;;1554697;74;773;-55
2021/06/17 10:18:55;;;;;;;;;;;26.70;41.10;;;;;;1555766;74;821;-55
2021/06/17 10:20:56;;;;;;;;;;;26.80;41.00;;;;;;1541337;74;1167;-56
2021/06/17 10:22:58;;;;;;;;;;;26.80;40.90;;;;;;1551835;74;746;-57
2021/06/17 10:25:00;;;;;;;;;;;26.90;40.90;;;;;;1560915;74;743;-59
2021/06/17 10:27:06;;;;;;;;;;;26.90;40.70;;;;;;1559246;74;2066;-59
2021/06/17 10:29:09;;;;;;;;;;;26.90;40.80;;;;;;1552788;75;1650;-57
2021/06/17 10:31:12;;;;;;;;;;;26.80;40.70;;;;;;1557888;74;1182;-56
2021/06/17 10:33:27;;;;;;;;;;;26.80;40.80;;;;;;1554530;75;814;-57
2021/06/17 10:35:29;;;;;;;;;;;26.90;40.70;;;;;;1551134;75;732;-57
2021/06/17 10:37:32;;;;;;;;;;;26.90;40.70;;;;;;1550275;75;745;-59
2021/06/17 10:39:41;;;;;;;;;;;26.90;40.70;;;;;;1552218;74;869;-56
2021/06/17 10:41:57;;;;;;;;;;;26.90;40.60;;;;;;1556986;75;1176;-60
2021/06/17 10:44:04;;;;;;;;;;;26.90;40.50;;;;;;1563984;74;763;-57
2021/06/17 10:46:06;;;;;;;;;;;26.90;40.70;;;;;;1549317;74;1970;-59
2021/06/17 10:48:09;;;;;;;;;;;26.90;40.70;;;;;;1536400;76;745;-59
2021/06/17 10:50:17;;;;;;;;;;;26.90;40.60;;;;;;1561333;75;1564;-58
2021/06/17 10:52:23;;;;;;;;;;;27.00;41.40;;;;;;1561675;73;1133;-60
2021/06/17 10:54:30;;;;;;;;;;;27.00;41.40;;;;;;1555146;75;709;-59
2021/06/17 10:56:39;;;;;;;;;;;26.90;40.90;;;;;;1534459;70;218891;-69
2021/06/17 10:58:45;;;;;;;;;;;26.90;40.90;;;;;;1525693;76;672;-69
2021/06/17 11:00:47;;;;;;;;;;;26.90;40.80;;;;;;1525173;76;743;-73
2021/06/17 11:02:53;;;;;;;;;;;26.90;40.90;;;;;;1523807;76;693;-68
2021/06/17 11:04:54;;;;;;;;;;;26.90;40.80;;;;;;1508931;76;1217;-70
2021/06/17 11:06:57;;;;;;;;;;;27.00;41.30;;;;;;1561579;74;1934;-69
2021/06/17 11:09:01;;;;;;;;;;;27.00;41.20;;;;;;1561276;74;631;-73
2021/06/17 11:11:04;;;;;;;;;;;27.00;41.10;;;;;;1563268;74;961;-70
2021/06/17 11:13:06;;;;;;;;;;;27.00;41.10;;;;;;1567188;74;723;-71
2021/06/17 11:15:11;;;;;;;;;;;26.90;40.30;;;;;;1565179;74;1161;-71
2021/06/17 11:17:35;;;;;;;;;;;27.00;41.00;;;;;;1559013;74;1122;-69
2021/06/17 11:19:57;;;;;;;;;;;26.90;40.20;;;;;;1561559;74;613;-68
2021/06/17 11:21:59;;;;;;;;;;;26.80;40.50;;;;;;1557526;74;1235;-71
2021/06/17 11:24:02;;;;;;;;;;;26.90;40.30;;;;;;1562352;74;786;-68
2021/06/17 11:26:04;;;;;;;;;;;26.90;40.00;;;;;;1558136;74;1954;-67
2021/06/17 11:28:07;;;;;;;;;;;26.90;40.00;;;;;;1561754;74;708;-68
2021/06/17 11:30:09;;;;;;;;;;;26.90;40.00;;;;;;1565393;74;716;-70
2021/06/17 11:32:30;;;;;;;;;;;26.90;40.00;;;;;;1561473;74;752;-72
2021/06/17 11:34:33;;;;;;;;;;;26.90;40.00;;;;;;1557174;74;1165;-67
2021/06/17 11:36:35;;;;;;;;;;;26.90;39.90;;;;;;1558286;75;714;-70
2021/06/17 11:38:38;;;;;;;;;;;26.90;39.70;;;;;;1560774;74;783;-69
2021/06/17 11:40:40;;;;;;;;;;;26.90;39.70;;;;;;1564452;74;708;-71
2021/06/17 11:42:41;;;;;;;;;;;26.90;39.70;;;;;;1554059;74;775;-71
2021/06/17 11:44:43;;;;;;;;;;;26.90;39.60;;;;;;1561000;74;1169;-70
2021/06/17 11:46:51;;;;;;;;;;;26.90;39.50;;;;;;1563547;74;1946;-70
2021/06/17 11:48:53;;;;;;;;;;;26.90;39.60;;;;;;1557285;74;1654;-70
2021/06/17 11:50:55;;;;;;;;;;;26.90;39.50;;;;;;1561431;74;1452;-71
2021/06/17 11:52:58;;;;;;;;;;;26.90;39.50;;;;;;1561613;74;743;-72
2021/06/17 11:55:02;;;;;;;;;;;26.90;39.50;;;;;;1560889;74;1179;-74
2021/06/17 11:57:04;;;;;;;;;;;26.80;39.50;;;;;;1558330;74;772;-71
2021/06/17 11:59:22;;;;;;;;;;;26.90;39.50;;;;;;1559510;74;726;-71
2021/06/17 12:01:25;;;;;;;;;;;26.80;39.40;;;;;;1560484;74;777;-68
2021/06/17 12:03:27;;;;;;;;;;;26.80;39.40;;;;;;1560769;74;790;-70
2021/06/17 12:05:30;;;;;;;;;;;26.80;39.40;;;;;;1555743;74;1158;-71
2021/06/17 12:07:33;;;;;;;;;;;26.80;39.70;;;;;;1547222;74;1900;-79
2021/06/17 12:09:35;;;;;;;;;;;26.80;40.30;;;;;;1557733;74;1050;-76
2021/06/17 12:11:37;;;;;;;;;;;26.70;40.20;;;;;;1555823;74;654;-71
2021/06/17 12:13:40;;;;;;;;;;;26.60;40.40;;;;;;1552977;74;679;-70
2021/06/17 12:15:43;;;;;;;;;;;26.60;39.70;;;;;;1565047;74;1154;-72
2021/06/17 12:17:46;;;;;;;;;;;26.60;38.10;;;;;;1561678;74;712;-70